Terminal Aerodrome Forecast
Issued by NWS

Home | Current Version | Previous Version | Graphics & Text | Print | Product List | Glossary On
Versions: 1 2 3 4 5 6 7 8 9 10 11 12 13 14 15 16 17 18 19 20 21 22 23 24 25
000
FTUS42 KMHX 232200 AAA
TAFISO
TAF AMD
KISO 232205Z 2322/2418 04004KT 1/2SM FG VCSH OVC002
     FM240100 04002KT 3/4SM -RA BR OVC002
     FM240900 17007KT 3/4SM -DZ BR OVC003
     FM241500 18012G18KT 3SM -RA BR OVC006
      AMD LTD TO CLD VIS AND WIND=

USA.gov is the U.S. government's official web portal to all federal, state and local government web resources and services.